Time;durP1;ratioP1;P1;durP2;ratioP2;P2;SDS_P1;SDS_P2;PMS_P1;PMS_P2;Temp;Humidity;BMP_temperature;BMP_pressure;BME280_temperature;BME280_humidity;BME280_pressure;Samples;Min_cycle;Max_cycle;Signal;HPM_P1;HPM_P2
2021/12/07 00:01:42;;;;;;;29.90;20.52;;;2.50;99.90;;;;;;4978038;28;20074;-74
2021/12/07 00:04:08;;;;;;;31.42;21.50;;;2.50;99.90;;;;;;4980184;28;20039;-74
2021/12/07 00:06:35;;;;;;;34.00;22.13;;;2.40;99.90;;;;;;4966093;28;20041;-73
2021/12/07 00:09:02;;;;;;;30.75;21.88;;;2.40;99.90;;;;;;4961817;28;20031;-74
2021/12/07 00:11:29;;;;;;;33.10;22.02;;;2.40;99.90;;;;;;4983320;28;20062;-73
2021/12/07 00:13:59;;;;;;;32.38;21.70;;;2.40;99.90;;;;;;4966403;28;20045;-73
2021/12/07 00:16:26;;;;;;;31.50;21.52;;;2.40;99.90;;;;;;4975977;28;20046;-73
2021/12/07 00:18:53;;;;;;;31.50;21.75;;;2.30;99.90;;;;;;4978953;28;20047;-73
2021/12/07 00:21:20;;;;;;;32.65;21.90;;;2.40;99.90;;;;;;4965539;28;20039;-74
2021/12/07 00:23:48;;;;;;;30.50;22.00;;;2.40;99.90;;;;;;4982911;28;20047;-74
2021/12/07 00:26:15;;;;;;;32.50;21.92;;;2.40;99.90;;;;;;4989870;28;20042;-74
2021/12/07 00:28:42;;;;;;;31.63;21.33;;;2.30;99.90;;;;;;4969563;28;20045;-74
2021/12/07 00:31:21;;;;;;;29.63;20.85;;;2.20;99.90;;;;;;4980172;28;20038;-74
2021/12/07 00:33:53;;;;;;;30.85;21.70;;;2.20;99.90;;;;;;4965464;28;20038;-74
2021/12/07 00:36:19;;;;;;;30.35;21.63;;;2.10;99.90;;;;;;4962552;28;20126;-74
2021/12/07 00:38:46;;;;;;;30.52;21.38;;;2.00;99.90;;;;;;4969000;28;20042;-74
2021/12/07 00:41:11;;;;;;;30.73;21.25;;;2.00;99.90;;;;;;4965289;28;20046;-74
2021/12/07 00:43:38;;;;;;;29.45;20.67;;;1.90;99.90;;;;;;4965078;28;20402;-73
2021/12/07 00:46:04;;;;;;;29.55;21.10;;;1.90;99.90;;;;;;4964071;28;20074;-74
2021/12/07 00:48:30;;;;;;;31.42;21.42;;;1.90;99.90;;;;;;4983596;28;20493;-74
2021/12/07 00:50:57;;;;;;;31.35;20.75;;;1.80;99.90;;;;;;4979509;28;20053;-74
2021/12/07 00:53:25;;;;;;;27.92;20.63;;;1.80;99.90;;;;;;4984247;28;20101;-74
2021/12/07 00:55:53;;;;;;;28.27;19.38;;;1.70;99.90;;;;;;4969841;28;20046;-74
2021/12/07 00:58:23;;;;;;;34.72;20.60;;;1.70;99.90;;;;;;4966876;28;20125;-74
2021/12/07 01:01:05;;;;;;;32.97;21.13;;;1.60;99.90;;;;;;4966455;28;20070;-74
2021/12/07 01:03:31;;;;;;;31.83;20.25;;;1.60;99.90;;;;;;4971419;28;20053;-74
2021/12/07 01:06:14;;;;;;;32.90;21.95;;;1.60;99.90;;;;;;4968482;28;20050;-74
2021/12/07 01:24:58;;;;;;;36.42;20.80;;;1.40;99.90;;;;;;4966146;28;20057;-74
2021/12/07 01:27:24;;;;;;;35.40;20.83;;;1.40;99.90;;;;;;4979429;28;20034;-74
2021/12/07 01:33:01;;;;;;;35.38;21.27;;;1.30;99.90;;;;;;4935347;28;20053;-74
2021/12/07 01:40:55;;;;;;;34.08;21.23;;;1.30;99.90;;;;;;4965812;28;20048;-73
2021/12/07 01:47:23;;;;;;;33.20;21.05;;;1.30;99.90;;;;;;4970613;28;20393;-74
2021/12/07 01:59:58;;;;;;;36.20;22.00;;;1.30;99.90;;;;;;4967565;28;20090;-74
2021/12/07 02:02:28;;;;;;;36.13;23.02;;;1.30;99.90;;;;;;4968191;28;20560;-74
2021/12/07 02:04:56;;;;;;;37.08;22.30;;;1.40;99.90;;;;;;4967775;28;20081;-74
2021/12/07 02:07:23;;;;;;;35.10;22.48;;;1.40;99.90;;;;;;4964659;28;20489;-74
2021/12/07 02:09:54;;;;;;;39.67;24.58;;;1.40;99.90;;;;;;4981225;28;20406;-74
2021/12/07 02:12:20;;;;;;;38.92;24.73;;;1.40;99.90;;;;;;4965953;28;20130;-74
2021/12/07 02:14:46;;;;;;;41.75;25.23;;;1.40;99.90;;;;;;4966077;28;20477;-74
2021/12/07 02:17:15;;;;;;;39.00;24.38;;;1.40;99.90;;;;;;4967071;28;20097;-72
2021/12/07 02:19:41;;;;;;;41.38;25.02;;;1.40;99.90;;;;;;4965989;28;20481;-72
2021/12/07 02:22:07;;;;;;;42.13;25.50;;;1.40;99.90;;;;;;4966547;28;20042;-73
2021/12/07 02:24:34;;;;;;;42.55;26.10;;;1.40;99.90;;;;;;4986173;28;20440;-73
2021/12/07 02:27:00;;;;;;;45.38;26.13;;;1.40;99.90;;;;;;4981569;28;20524;-73
2021/12/07 02:29:26;;;;;;;44.03;26.20;;;1.40;99.90;;;;;;4967907;28;20519;-73
2021/12/07 02:31:54;;;;;;;42.20;25.90;;;1.40;99.90;;;;;;4983884;28;20481;-73
2021/12/07 02:34:21;;;;;;;40.53;25.58;;;1.40;99.90;;;;;;4962550;28;20485;-73
2021/12/07 02:36:50;;;;;;;48.80;27.02;;;1.40;99.90;;;;;;4980775;28;20187;-73
2021/12/07 02:39:16;;;;;;;43.28;26.17;;;1.40;99.90;;;;;;4970249;28;20540;-73
2021/12/07 02:41:43;;;;;;;41.03;25.90;;;1.50;99.90;;;;;;4979905;28;22314;-73
2021/12/07 02:44:09;;;;;;;40.92;25.17;;;1.50;99.90;;;;;;4970220;28;20556;-73
2021/12/07 02:46:37;;;;;;;42.25;26.00;;;1.50;99.90;;;;;;4973313;28;20030;-73
2021/12/07 02:49:04;;;;;;;41.00;24.88;;;1.50;99.90;;;;;;4968817;28;20130;-73
2021/12/07 02:51:30;;;;;;;43.33;26.02;;;1.50;99.90;;;;;;4971730;28;20057;-73
2021/12/07 02:53:56;;;;;;;38.92;25.52;;;1.50;99.90;;;;;;4956285;28;20042;-73
2021/12/07 02:56:22;;;;;;;40.60;24.67;;;1.50;99.90;;;;;;4968274;28;20054;-73
2021/12/07 02:58:48;;;;;;;37.95;24.50;;;1.50;99.90;;;;;;4970134;28;20046;-73
2021/12/07 03:01:21;;;;;;;38.20;24.27;;;1.60;99.90;;;;;;4963838;28;20061;-72
2021/12/07 03:04:34;;;;;;;;;;;1.60;99.90;;;;;;4979760;28;20042;-72
2021/12/07 03:07:42;;;;;;;35.35;23.15;;;1.60;99.90;;;;;;4971968;28;19918;-72
2021/12/07 03:26:10;;;;;;;35.38;22.65;;;1.60;99.90;;;;;;4980348;28;20067;-73
2021/12/07 03:28:40;;;;;;;36.55;21.98;;;1.50;99.90;;;;;;4978687;28;20047;-73
2021/12/07 03:31:06;;;;;;;37.30;22.60;;;1.60;99.90;;;;;;4962030;28;20053;-73
2021/12/07 03:33:33;;;;;;;33.90;22.27;;;1.50;99.90;;;;;;4966029;28;20046;-73
2021/12/07 03:35:59;;;;;;;31.65;20.98;;;1.50;99.90;;;;;;4979368;28;20142;-73
2021/12/07 03:38:25;;;;;;;33.20;20.83;;;1.50;99.90;;;;;;4967900;28;20070;-73
2021/12/07 03:40:51;;;;;;;29.05;19.83;;;1.50;99.90;;;;;;4962573;28;20134;-73
2021/12/07 03:43:16;;;;;;;33.83;20.40;;;1.60;99.90;;;;;;4961290;28;20125;-73
2021/12/07 03:45:42;;;;;;;28.38;19.10;;;1.60;99.90;;;;;;4961118;28;20051;-73
2021/12/07 03:48:10;;;;;;;31.85;20.10;;;1.60;99.90;;;;;;4975700;28;20035;-73
2021/12/07 03:50:36;;;;;;;33.22;20.80;;;1.60;99.90;;;;;;4963082;28;20042;-73
2021/12/07 03:53:03;;;;;;;36.22;20.25;;;1.50;99.90;;;;;;4979827;28;20049;-73
2021/12/07 03:55:29;;;;;;;33.33;20.65;;;1.50;99.90;;;;;;4960973;28;20130;-73
2021/12/07 03:57:55;;;;;;;31.90;19.55;;;1.60;99.90;;;;;;4963730;28;20039;-73
2021/12/07 04:00:23;;;;;;;31.52;19.73;;;1.60;99.90;;;;;;4979980;28;20039;-73
2021/12/07 04:02:51;;;;;;;30.65;19.27;;;1.60;99.90;;;;;;4967155;28;20086;-74
2021/12/07 04:05:19;;;;;;;29.67;18.85;;;1.60;99.90;;;;;;4963500;28;20050;-73
2021/12/07 04:07:45;;;;;;;27.52;18.42;;;1.50;99.90;;;;;;4965051;28;20041;-74
2021/12/07 04:10:15;;;;;;;29.42;18.45;;;1.60;99.90;;;;;;4963819;28;20098;-73
2021/12/07 04:12:41;;;;;;;25.52;16.95;;;1.60;99.90;;;;;;4962614;28;20042;-73
2021/12/07 04:15:10;;;;;;;27.17;18.85;;;1.60;99.90;;;;;;4962791;28;20050;-73
2021/12/07 04:17:36;;;;;;;27.60;17.05;;;1.50;99.90;;;;;;4964080;28;20042;-73
2021/12/07 04:20:05;;;;;;;28.90;18.02;;;1.50;99.90;;;;;;4979981;28;20050;-73
2021/12/07 04:22:30;;;;;;;31.65;18.55;;;1.50;99.90;;;;;;4966853;28;20385;-73
2021/12/07 04:24:56;;;;;;;31.27;18.42;;;1.60;99.90;;;;;;4961425;28;20106;-73
2021/12/07 04:27:22;;;;;;;29.60;18.60;;;1.60;99.90;;;;;;4960344;28;20105;-73
2021/12/07 04:29:48;;;;;;;29.73;17.98;;;1.60;99.90;;;;;;4963925;28;20089;-73
2021/12/07 04:32:14;;;;;;;32.30;18.40;;;1.60;99.90;;;;;;4961990;28;20050;-74
2021/12/07 04:34:39;;;;;;;28.73;17.85;;;1.70;99.90;;;;;;4976839;28;20043;-73
2021/12/07 04:37:05;;;;;;;31.33;17.45;;;1.70;99.90;;;;;;4979410;28;20042;-73
2021/12/07 04:39:31;;;;;;;30.33;17.50;;;1.70;99.90;;;;;;4966018;28;20131;-74
2021/12/07 04:41:57;;;;;;;27.27;16.30;;;1.80;99.90;;;;;;4977726;28;20043;-74
2021/12/07 04:44:24;;;;;;;30.00;16.73;;;1.80;99.90;;;;;;4951095;28;20045;-73
2021/12/07 04:47:41;;;;;;;29.73;16.05;;;1.80;99.90;;;;;;4963945;28;20038;-73
2021/12/07 04:49:59;;;;;;;33.25;17.48;;;1.80;99.90;;;;;;4967443;28;20126;-73
2021/12/07 04:57:53;;;;;;;27.50;16.42;;;1.80;99.90;;;;;;4990598;28;20046;-73
2021/12/07 05:00:23;;;;;;;27.10;15.52;;;1.70;99.90;;;;;;4968016;28;20508;-72
2021/12/07 05:03:02;;;;;;;25.73;15.50;;;1.70;99.90;;;;;;4988668;28;20031;-72
2021/12/07 05:05:33;;;;;;;28.75;16.40;;;1.60;99.90;;;;;;4956338;28;20035;-73
2021/12/07 05:08:02;;;;;;;23.80;14.70;;;1.70;99.90;;;;;;4941035;28;20038;-73
2021/12/07 05:10:35;;;;;;;30.73;16.10;;;1.60;99.90;;;;;;4981384;28;20432;-73
2021/12/07 05:24:04;;;;;;;33.45;17.02;;;1.60;99.90;;;;;;4963590;28;20039;-72
2021/12/07 05:40:26;;;;;;;28.90;15.90;;;1.60;99.90;;;;;;4981295;28;20047;-72
2021/12/07 05:42:53;;;;;;;31.52;16.77;;;1.60;99.90;;;;;;4985150;28;20465;-73
2021/12/07 05:45:31;;;;;;;33.05;15.88;;;1.50;99.90;;;;;;4991149;28;20109;-73
2021/12/07 05:48:02;;;;;;;31.48;17.25;;;1.50;99.90;;;;;;4959083;28;20049;-73
2021/12/07 05:50:30;;;;;;;28.10;17.15;;;1.50;99.90;;;;;;4973924;28;20397;-73
2021/12/07 05:52:57;;;;;;;31.92;16.23;;;1.50;99.90;;;;;;4968372;28;20371;-72
2021/12/07 05:55:23;;;;;;;33.17;16.65;;;1.50;99.90;;;;;;4978054;28;20038;-72
2021/12/07 05:57:49;;;;;;;32.58;16.42;;;1.50;99.90;;;;;;4983409;28;20782;-72
2021/12/07 06:00:25;;;;;;;33.95;17.60;;;1.50;99.90;;;;;;4979792;28;20433;-72
2021/12/07 06:02:56;;;;;;;44.00;17.75;;;1.50;99.90;;;;;;4963309;28;20397;-73
2021/12/07 06:05:23;;;;;;;33.25;17.35;;;1.50;99.90;;;;;;4966321;28;20042;-72
2021/12/07 06:07:49;;;;;;;35.20;17.13;;;1.50;99.90;;;;;;4982605;28;20394;-72
2021/12/07 06:10:15;;;;;;;27.88;16.35;;;1.50;99.90;;;;;;4968537;28;20503;-72
2021/12/07 06:12:40;;;;;;;26.83;15.05;;;1.50;99.90;;;;;;4967177;28;20082;-73
2021/12/07 06:15:07;;;;;;;23.20;13.27;;;1.50;99.90;;;;;;4980067;28;20035;-73
2021/12/07 06:17:33;;;;;;;24.25;14.30;;;1.50;99.90;;;;;;4981508;28;20196;-73
2021/12/07 06:19:58;;;;;;;25.83;14.15;;;1.40;99.90;;;;;;4949752;28;20065;-74
2021/12/07 06:22:24;;;;;;;32.78;14.27;;;1.40;99.90;;;;;;4977437;28;20066;-74
2021/12/07 06:24:50;;;;;;;34.70;16.02;;;1.40;99.90;;;;;;4950518;28;20121;-73
2021/12/07 06:27:16;;;;;;;22.77;14.00;;;1.30;99.90;;;;;;4969822;28;20489;-74
2021/12/07 06:29:42;;;;;;;31.48;14.98;;;1.30;99.90;;;;;;4947811;28;20046;-74
2021/12/07 06:32:08;;;;;;;31.55;16.13;;;1.20;99.90;;;;;;4977689;28;20031;-74
2021/12/07 06:34:35;;;;;;;29.77;15.18;;;1.20;99.90;;;;;;4964992;28;21303;-74
2021/12/07 06:37:02;;;;;;;31.77;16.00;;;1.20;99.90;;;;;;4967617;28;20159;-74
2021/12/07 06:39:28;;;;;;;32.95;16.10;;;1.20;99.90;;;;;;4966314;28;20075;-74
2021/12/07 06:41:54;;;;;;;33.55;16.17;;;1.30;99.90;;;;;;4965940;28;20066;-74
2021/12/07 06:44:20;;;;;;;32.55;17.25;;;1.30;99.90;;;;;;4984169;28;20212;-75
2021/12/07 06:46:50;;;;;;;36.90;16.98;;;1.30;99.90;;;;;;4965774;28;20548;-74
2021/12/07 06:49:16;;;;;;;35.67;17.75;;;1.30;99.90;;;;;;4979894;28;20042;-74
2021/12/07 06:51:42;;;;;;;37.70;17.63;;;1.30;99.90;;;;;;4952408;28;20047;-74
2021/12/07 06:54:08;;;;;;;33.10;16.98;;;1.30;99.90;;;;;;4963236;28;20038;-73
2021/12/07 06:56:34;;;;;;;41.45;17.77;;;1.30;99.90;;;;;;4967183;28;20800;-74
2021/12/07 06:59:00;;;;;;;33.97;18.20;;;1.30;99.90;;;;;;4943760;28;20050;-74
2021/12/07 07:01:25;;;;;;;36.65;18.70;;;1.30;99.90;;;;;;4983918;28;20511;-73
2021/12/07 07:03:51;;;;;;;37.38;17.83;;;1.30;99.90;;;;;;4966239;28;20137;-74
2021/12/07 07:06:17;;;;;;;37.30;18.05;;;1.30;99.90;;;;;;4984231;28;20034;-74
2021/12/07 07:08:43;;;;;;;37.90;17.63;;;1.30;99.90;;;;;;4969681;28;20043;-73
2021/12/07 07:11:09;;;;;;;36.72;17.20;;;1.30;99.90;;;;;;4981522;28;20043;-73
2021/12/07 07:13:35;;;;;;;33.90;16.63;;;1.30;99.90;;;;;;4969120;28;20492;-74
2021/12/07 07:16:01;;;;;;;33.80;16.65;;;1.20;99.90;;;;;;4966149;28;20615;-73
2021/12/07 07:18:27;;;;;;;32.42;17.13;;;1.20;99.90;;;;;;4969288;28;20042;-74
2021/12/07 07:20:55;;;;;;;29.85;16.67;;;1.20;99.90;;;;;;4953418;28;20410;-74
2021/12/07 07:23:24;;;;;;;32.25;17.17;;;1.20;99.90;;;;;;4967432;28;20043;-74
2021/12/07 07:25:51;;;;;;;34.53;17.95;;;1.30;99.90;;;;;;4969740;28;20035;-73
2021/12/07 07:28:16;;;;;;;38.00;18.20;;;1.30;99.90;;;;;;4983048;28;20079;-73
2021/12/07 07:30:42;;;;;;;41.88;18.48;;;1.30;99.90;;;;;;4955234;28;20421;-73
2021/12/07 07:33:08;;;;;;;39.63;18.50;;;1.30;99.90;;;;;;4971067;28;20412;-74
2021/12/07 07:35:34;;;;;;;39.55;17.67;;;1.30;99.90;;;;;;4924153;28;20455;-73
2021/12/07 07:38:00;;;;;;;36.20;17.42;;;1.30;99.90;;;;;;4953857;28;20143;-73
2021/12/07 07:40:26;;;;;;;38.03;16.70;;;1.40;99.90;;;;;;4948808;28;20046;-74
2021/12/07 07:42:52;;;;;;;34.38;16.55;;;1.40;99.90;;;;;;4951166;28;20039;-75
2021/12/07 07:45:18;;;;;;;36.63;16.63;;;1.40;99.90;;;;;;4959757;28;20371;-74
2021/12/07 07:47:44;;;;;;;39.05;16.73;;;1.50;99.90;;;;;;4965513;28;20071;-74
2021/12/07 07:50:12;;;;;;;36.30;15.32;;;1.50;99.90;;;;;;4967792;28;20067;-75
2021/12/07 07:52:38;;;;;;;34.35;15.43;;;1.50;99.90;;;;;;4953569;28;20371;-74
2021/12/07 07:55:05;;;;;;;37.05;15.50;;;1.50;99.90;;;;;;4961658;28;20043;-73
2021/12/07 07:57:30;;;;;;;28.55;14.40;;;1.60;99.90;;;;;;4950042;29;20047;-73
2021/12/07 07:59:56;;;;;;;32.42;12.82;;;1.60;99.90;;;;;;4941399;28;21277;-74
2021/12/07 08:02:22;;;;;;;30.42;12.55;;;1.60;99.90;;;;;;4945178;28;20075;-74
2021/12/07 08:04:48;;;;;;;29.42;12.02;;;1.60;99.90;;;;;;4942992;28;20039;-74
2021/12/07 08:07:14;;;;;;;30.00;12.30;;;1.70;99.90;;;;;;4962940;28;20070;-74
2021/12/07 08:09:40;;;;;;;26.92;12.38;;;1.60;99.90;;;;;;4951027;28;20402;-74
2021/12/07 08:12:06;;;;;;;27.73;11.38;;;1.60;99.90;;;;;;4965629;28;20050;-74
2021/12/07 08:14:33;;;;;;;33.15;12.10;;;1.60;99.90;;;;;;4961677;28;20050;-74
2021/12/07 08:16:58;;;;;;;30.30;12.60;;;1.60;99.90;;;;;;4963628;28;20047;-73
2021/12/07 08:19:24;;;;;;;35.55;12.25;;;1.60;99.90;;;;;;4940138;28;20610;-73
2021/12/07 08:21:50;;;;;;;34.25;12.13;;;1.60;99.90;;;;;;4959200;28;20470;-73
2021/12/07 08:24:16;;;;;;;30.85;12.77;;;1.60;99.90;;;;;;4958894;28;20481;-73
2021/12/07 08:26:42;;;;;;;37.33;13.30;;;1.60;99.90;;;;;;4952858;28;20066;-73
2021/12/07 08:29:08;;;;;;;31.63;12.70;;;1.70;99.90;;;;;;4959676;28;20044;-73
2021/12/07 08:31:33;;;;;;;35.33;13.75;;;1.70;99.90;;;;;;4963768;28;20636;-75
2021/12/07 08:34:00;;;;;;;34.90;13.55;;;1.70;99.90;;;;;;4967032;28;20043;-74
2021/12/07 08:36:27;;;;;;;36.28;14.45;;;1.80;99.90;;;;;;4952289;28;20081;-73
2021/12/07 08:38:53;;;;;;;31.55;12.40;;;1.80;99.90;;;;;;4952459;28;20047;-73
2021/12/07 08:41:19;;;;;;;36.45;13.85;;;1.80;99.90;;;;;;4955315;28;20043;-73
2021/12/07 08:43:45;;;;;;;32.13;12.75;;;1.80;99.90;;;;;;4976592;28;20129;-73
2021/12/07 08:46:13;;;;;;;30.90;13.32;;;1.80;99.90;;;;;;4954205;28;20035;-73
2021/12/07 08:48:41;;;;;;;29.40;12.40;;;1.80;99.90;;;;;;4950369;28;20079;-73
2021/12/07 08:51:09;;;;;;;31.40;11.75;;;1.80;99.90;;;;;;4958620;28;20075;-73
2021/12/07 08:53:38;;;;;;;27.83;11.82;;;1.80;99.90;;;;;;4948611;28;20047;-73
2021/12/07 09:01:34;;;;;;;30.73;13.75;;;1.80;99.90;;;;;;4951354;28;20043;-73
2021/12/07 09:04:00;;;;;;;44.60;15.68;;;1.80;99.90;;;;;;4966922;28;20067;-73
2021/12/07 09:06:27;;;;;;;38.40;14.63;;;1.90;99.90;;;;;;4952545;29;20512;-74
2021/12/07 09:08:54;;;;;;;35.83;14.65;;;1.90;99.90;;;;;;4958776;28;20043;-73
2021/12/07 09:11:22;;;;;;;37.72;13.57;;;2.00;99.90;;;;;;4951125;28;20051;-73
2021/12/07 09:13:47;;;;;;;31.60;13.23;;;2.00;99.90;;;;;;4962281;28;20122;-73
2021/12/07 09:16:17;;;;;;;29.15;13.70;;;2.00;99.90;;;;;;4968092;28;20075;-74
2021/12/07 09:18:43;;;;;;;32.75;13.75;;;2.10;99.90;;;;;;4959578;28;20043;-75
2021/12/07 09:21:10;;;;;;;31.27;14.30;;;2.10;99.90;;;;;;4947677;29;20043;-73
2021/12/07 09:23:36;;;;;;;43.20;14.60;;;2.10;99.90;;;;;;4964400;28;20047;-73
2021/12/07 09:26:03;;;;;;;31.83;14.52;;;2.10;99.90;;;;;;4950313;28;20039;-73
2021/12/07 09:28:28;;;;;;;35.50;13.95;;;2.20;99.90;;;;;;4949758;28;20042;-73
2021/12/07 09:30:55;;;;;;;32.33;12.98;;;2.20;99.90;;;;;;4966619;28;20693;-73
2021/12/07 09:33:24;;;;;;;34.72;13.95;;;2.30;99.90;;;;;;4953461;28;20050;-74
2021/12/07 09:35:52;;;;;;;34.08;13.45;;;2.30;99.90;;;;;;4968784;28;20047;-73
2021/12/07 09:38:18;;;;;;;42.70;13.68;;;2.30;99.90;;;;;;4953227;28;20046;-74
2021/12/07 09:40:44;;;;;;;35.72;14.20;;;2.40;99.90;;;;;;4963800;28;20084;-75
2021/12/07 09:43:12;;;;;;;37.20;13.48;;;2.50;99.90;;;;;;4950158;28;20046;-74
2021/12/07 09:45:40;;;;;;;33.38;13.05;;;2.70;99.90;;;;;;4949248;28;20122;-75
2021/12/07 09:48:08;;;;;;;29.02;12.52;;;2.70;99.90;;;;;;4954245;29;20035;-75
2021/12/07 09:50:34;;;;;;;30.52;11.82;;;2.80;99.90;;;;;;4957777;28;20043;-75
2021/12/07 09:53:03;;;;;;;33.90;12.20;;;2.80;99.90;;;;;;4953486;28;22401;-75
2021/12/07 09:55:30;;;;;;;30.98;12.10;;;2.80;99.90;;;;;;4967748;28;20043;-75
2021/12/07 09:57:56;;;;;;;30.95;11.68;;;2.80;99.90;;;;;;4952295;28;20047;-75
2021/12/07 10:00:24;;;;;;;31.20;10.85;;;2.80;99.90;;;;;;4950117;28;20046;-75
2021/12/07 10:02:51;;;;;;;29.42;11.50;;;2.80;99.90;;;;;;4968522;28;20135;-75
2021/12/07 10:05:19;;;;;;;33.92;12.18;;;2.80;99.90;;;;;;4970263;28;20043;-74
2021/12/07 10:07:46;;;;;;;32.53;12.48;;;2.80;99.90;;;;;;4968042;28;20047;-75
2021/12/07 10:10:33;;;;;;;30.48;11.68;;;2.80;99.90;;;;;;4983089;28;20043;-75
2021/12/07 10:13:01;;;;;;;34.60;12.05;;;2.90;99.90;;;;;;4969107;28;20035;-74
2021/12/07 10:15:29;;;;;;;28.70;11.27;;;3.00;99.90;;;;;;4952905;29;20055;-75
2021/12/07 10:18:16;;;;;;;30.35;12.85;;;3.10;99.90;;;;;;4952248;28;20409;-75
2021/12/07 10:20:45;;;;;;;28.65;11.55;;;3.20;99.90;;;;;;4967045;28;20050;-74
2021/12/07 10:23:13;;;;;;;28.10;11.68;;;3.20;99.90;;;;;;4952394;28;20046;-75
2021/12/07 10:25:40;;;;;;;28.77;10.85;;;3.30;99.90;;;;;;4972851;28;20043;-75
2021/12/07 10:28:28;;;;;;;27.92;10.80;;;3.40;99.90;;;;;;4951182;29;20073;-75
2021/12/07 10:30:55;;;;;;;29.40;10.82;;;3.50;99.90;;;;;;4970290;28;20126;-74
2021/12/07 10:33:31;;;;;;;23.02;10.13;;;3.60;99.90;;;;;;4977953;28;20047;-74
2021/12/07 10:36:14;;;;;;;23.75;10.20;;;3.70;99.90;;;;;;4967886;28;20093;-74
2021/12/07 10:38:41;;;;;;;24.88;9.55;;;3.80;99.90;;;;;;4957773;28;20040;-74
2021/12/07 10:41:11;;;;;;;30.08;9.57;;;3.80;99.90;;;;;;4947885;29;20035;-74
2021/12/07 10:43:52;;;;;;;25.13;9.70;;;3.90;99.90;;;;;;4950762;28;20050;-74
2021/12/07 10:46:46;;;;;;;20.73;8.65;;;4.00;99.90;;;;;;4965768;28;20433;-74
2021/12/07 10:49:25;;;;;;;21.05;9.02;;;4.00;99.90;;;;;;4958816;28;20053;-73
2021/12/07 10:52:18;;;;;;;21.33;9.05;;;4.10;99.90;;;;;;4968994;28;20182;-74
2021/12/07 10:55:08;;;;;;;21.05;8.40;;;4.10;99.90;;;;;;4981889;28;20043;-74
2021/12/07 10:57:38;;;;;;;25.83;9.05;;;4.20;99.90;;;;;;4966885;28;20093;-73
2021/12/07 11:00:23;;;;;;;21.70;8.88;;;4.20;99.90;;;;;;4951659;28;20042;-74
2021/12/07 11:03:05;;;;;;;23.95;8.48;;;4.30;99.90;;;;;;4949367;28;20046;-75
2021/12/07 11:05:39;;;;;;;19.92;8.35;;;4.30;99.90;;;;;;4959737;28;20051;-73
2021/12/07 11:08:06;;;;;;;22.30;8.40;;;4.40;99.90;;;;;;4964296;28;20039;-73
2021/12/07 11:10:36;;;;;;;24.13;8.40;;;4.50;99.90;;;;;;4977778;28;20043;-74
2021/12/07 11:13:17;;;;;;;18.60;7.88;;;4.50;99.90;;;;;;4947576;28;20039;-73
2021/12/07 11:15:59;;;;;;;24.88;7.90;;;4.70;99.90;;;;;;5109364;27;20335;-74
2021/12/07 11:18:33;;;;;;;22.23;7.57;;;4.80;99.90;;;;;;5082713;28;20118;-74
2021/12/07 11:21:08;;;;;;;25.33;8.48;;;4.90;99.90;;;;;;5101641;28;20044;-75
2021/12/07 11:23:37;;;;;;;18.33;6.47;;;5.00;99.90;;;;;;5097121;28;20402;-75
2021/12/07 11:31:49;;;;;;;18.02;6.40;;;5.30;99.90;;;;;;5100269;28;20139;-75
2021/12/07 11:34:21;;;;;;;20.77;6.45;;;5.40;99.90;;;;;;5101072;28;20093;-74
2021/12/07 11:36:51;;;;;;;18.58;6.18;;;5.50;99.90;;;;;;5100555;28;20044;-74
2021/12/07 11:39:22;;;;;;;14.55;6.07;;;5.60;99.90;;;;;;5098229;28;20031;-74
2021/12/07 11:41:54;;;;;;;15.35;6.15;;;5.70;99.90;;;;;;5100883;28;20070;-74
2021/12/07 11:44:22;;;;;;;17.65;6.43;;;5.70;99.90;;;;;;5101198;28;20050;-74
2021/12/07 11:46:49;;;;;;;20.52;7.35;;;5.80;99.90;;;;;;5103087;28;20079;-74
2021/12/07 11:49:21;;;;;;;15.68;5.80;;;5.80;99.90;;;;;;5101257;28;20055;-74
2021/12/07 11:51:50;;;;;;;22.23;6.85;;;5.90;99.90;;;;;;5099843;28;20634;-74
2021/12/07 11:54:17;;;;;;;18.10;6.30;;;6.00;99.90;;;;;;5095391;28;20626;-74
2021/12/07 11:56:45;;;;;;;18.40;5.95;;;6.10;99.90;;;;;;5095985;28;20039;-74
2021/12/07 11:59:12;;;;;;;17.98;6.18;;;6.10;99.90;;;;;;5095976;28;20031;-74
2021/12/07 12:01:38;;;;;;;22.38;6.00;;;6.10;99.90;;;;;;5099123;28;20050;-74
2021/12/07 12:04:04;;;;;;;15.15;6.10;;;6.20;99.90;;;;;;5096152;28;20071;-74
2021/12/07 12:06:31;;;;;;;17.08;6.38;;;6.30;99.90;;;;;;5100737;28;20044;-74
2021/12/07 12:08:58;;;;;;;18.52;5.90;;;6.40;99.90;;;;;;5103735;28;20502;-74
2021/12/07 12:11:37;;;;;;;18.08;5.82;;;6.50;99.90;;;;;;5097510;28;20036;-75
2021/12/07 12:14:40;;;;;;;12.90;5.30;;;6.70;99.90;;;;;;5095580;28;20045;-75
2021/12/07 12:17:17;;;;;;;17.10;6.00;;;6.70;99.90;;;;;;5100286;28;20509;-74
2021/12/07 12:19:58;;;;;;;19.60;5.78;;;6.80;99.90;;;;;;5088134;28;20047;-74
2021/12/07 12:22:45;;;;;;;17.27;5.78;;;6.90;99.90;;;;;;5105001;28;20028;-74
2021/12/07 12:25:14;;;;;;;14.88;5.82;;;7.00;99.90;;;;;;5096890;28;20798;-74
2021/12/07 12:27:42;;;;;;;15.10;5.05;;;7.00;99.90;;;;;;5086522;28;20045;-73
2021/12/07 12:30:08;;;;;;;15.55;5.10;;;6.90;99.90;;;;;;5085007;28;20039;-73
2021/12/07 12:32:36;;;;;;;9.68;4.55;;;6.90;99.90;;;;;;5088793;28;20031;-73
2021/12/07 12:35:07;;;;;;;19.75;4.95;;;6.90;99.90;;;;;;5087096;28;20047;-73
2021/12/07 12:37:34;;;;;;;11.23;4.97;;;6.90;99.90;;;;;;5073390;28;20084;-73
2021/12/07 12:40:10;;;;;;;14.60;4.35;;;6.90;99.90;;;;;;5066586;28;20043;-73
2021/12/07 12:42:43;;;;;;;13.95;5.10;;;6.80;99.90;;;;;;5086886;28;20036;-72
2021/12/07 12:45:25;;;;;;;20.13;5.90;;;6.90;99.90;;;;;;5087968;28;20123;-73
2021/12/07 12:48:01;;;;;;;14.45;4.82;;;6.80;99.90;;;;;;5082928;28;20072;-73
2021/12/07 12:50:31;;;;;;;16.05;5.05;;;6.80;99.90;;;;;;5050069;28;20378;-73
2021/12/07 12:53:04;;;;;;;13.70;4.63;;;6.80;99.90;;;;;;5088528;28;20472;-73
2021/12/07 12:55:32;;;;;;;16.58;5.82;;;6.80;99.90;;;;;;5091097;28;20086;-73
2021/12/07 12:57:59;;;;;;;18.30;5.55;;;6.90;99.90;;;;;;5087649;28;20094;-73
2021/12/07 13:01:03;;;;;;;14.88;5.22;;;6.80;99.90;;;;;;5095295;28;20036;-73
2021/12/07 13:03:59;;;;;;;14.00;4.82;;;6.90;99.90;;;;;;5058844;28;20033;-73
2021/12/07 13:06:25;;;;;;;16.48;5.18;;;6.90;99.90;;;;;;5084808;28;20379;-73
2021/12/07 13:09:05;;;;;;;17.63;5.30;;;7.00;99.90;;;;;;5096654;28;20039;-73
2021/12/07 13:11:52;;;;;;;15.00;5.68;;;7.00;99.90;;;;;;5086756;28;20051;-74
2021/12/07 13:14:21;;;;;;;14.63;5.40;;;7.10;99.90;;;;;;5070973;28;20056;-73
2021/12/07 13:17:11;;;;;;;13.25;5.40;;;7.30;99.90;;;;;;5088054;28;20075;-73
2021/12/07 13:20:07;;;;;;;11.30;5.22;;;7.40;99.90;;;;;;5073919;28;20063;-73
2021/12/07 13:22:43;;;;;;;15.95;5.95;;;7.60;99.90;;;;;;5095052;28;20546;-73
2021/12/07 13:25:17;;;;;;;21.08;5.68;;;7.60;99.90;;;;;;5086415;28;20051;-73
2021/12/07 13:28:13;;;;;;;17.92;6.07;;;7.80;99.90;;;;;;5076929;28;20556;-73
2021/12/07 13:30:44;;;;;;;13.70;5.63;;;7.90;99.90;;;;;;5085431;28;20040;-73
2021/12/07 13:33:31;;;;;;;17.10;5.78;;;8.00;99.90;;;;;;5084058;28;20052;-73
2021/12/07 13:35:57;;;;;;;16.90;5.93;;;8.00;99.90;;;;;;5082908;28;20040;-73
2021/12/07 13:38:31;;;;;;;12.90;5.88;;;7.90;99.90;;;;;;5085535;28;20036;-74
2021/12/07 13:41:14;;;;;;;15.38;6.07;;;7.70;99.90;;;;;;5092656;28;20044;-73
2021/12/07 13:43:46;;;;;;;16.08;6.35;;;7.50;99.90;;;;;;5081573;28;20040;-73
2021/12/07 13:46:23;;;;;;;17.55;6.22;;;7.30;99.90;;;;;;5090006;28;20040;-73
2021/12/07 13:48:51;;;;;;;20.63;7.28;;;7.00;99.90;;;;;;5086744;28;20112;-73
2021/12/07 13:51:20;;;;;;;17.30;6.22;;;6.90;99.90;;;;;;5083714;28;20044;-73
2021/12/07 13:53:47;;;;;;;17.20;6.80;;;6.70;99.90;;;;;;5085881;28;20044;-74
2021/12/07 13:56:13;;;;;;;19.13;7.22;;;6.70;99.90;;;;;;5091587;28;20036;-74
2021/12/07 13:58:59;;;;;;;17.77;7.43;;;6.50;99.90;;;;;;5090859;28;20478;-73
2021/12/07 14:01:28;;;;;;;22.23;7.68;;;6.40;99.90;;;;;;5096196;28;20057;-73
2021/12/07 14:03:56;;;;;;;14.60;7.28;;;6.20;99.90;;;;;;5089013;28;20418;-74
2021/12/07 14:06:22;;;;;;;19.60;7.50;;;6.10;99.90;;;;;;5093992;28;20040;-74
2021/12/07 14:08:49;;;;;;;22.05;8.50;;;5.90;99.90;;;;;;5094397;28;20036;-74
2021/12/07 14:11:16;;;;;;;18.52;8.25;;;5.80;99.90;;;;;;5087364;28;20492;-74
2021/12/07 14:13:44;;;;;;;19.35;8.75;;;5.70;99.90;;;;;;5083015;28;20444;-74
2021/12/07 14:16:12;;;;;;;15.38;8.60;;;5.60;99.90;;;;;;5084778;28;20398;-73
2021/12/07 14:18:41;;;;;;;21.17;9.27;;;5.50;99.90;;;;;;5090584;28;20028;-74
2021/12/07 14:21:07;;;;;;;20.05;9.05;;;5.40;99.90;;;;;;5092647;28;20566;-73
2021/12/07 14:23:40;;;;;;;21.23;8.70;;;5.30;99.90;;;;;;5091053;28;20489;-73
2021/12/07 14:26:13;;;;;;;21.27;9.65;;;5.20;99.90;;;;;;5091373;28;20440;-73
2021/12/07 14:28:45;;;;;;;21.73;10.48;;;5.10;99.90;;;;;;5088236;28;20502;-74
2021/12/07 14:31:18;;;;;;;23.27;10.00;;;5.10;99.90;;;;;;5081962;28;20686;-74